METAR Data
IDs: Format: Raw Decoded Include TAF

Data at: 1338 UTC 26 Feb 2021

EPWR 261330Z 32013KT 9999 BKN018 10/05 Q1026